Time;durP1;ratioP1;P1;durP2;ratioP2;P2;SDS_P1;SDS_P2;PMS_P1;PMS_P2;Temp;Humidity;BMP_temperature;BMP_pressure;BME280_temperature;BME280_humidity;BME280_pressure;Samples;Min_cycle;Max_cycle;Signal;HPM_P1;HPM_P2
2023/03/29 00:01:59;;;;;;;;;8.25;8.25;;;;;;;;5056759;28;10894;-94
2023/03/29 00:04:32;;;;;;;;;7.75;7.75;;;;;;;;5052295;28;10830;-94
2023/03/29 00:07:03;;;;;;;;;10.25;8.00;;;;;;;;5051369;28;10855;-95
2023/03/29 00:09:31;;;;;;;;;9.75;7.25;;;;;;;;5055394;28;10976;-93
2023/03/29 00:12:01;;;;;;;;;8.00;8.00;;;;;;;;5051306;28;11034;-95
2023/03/29 00:14:30;;;;;;;;;11.25;8.00;;;;;;;;5051899;28;10834;-95
2023/03/29 00:17:00;;;;;;;;;7.50;7.50;;;;;;;;5049911;28;10834;-95
2023/03/29 00:19:34;;;;;;;;;9.25;7.25;;;;;;;;5044608;28;10895;-94
2023/03/29 00:22:01;;;;;;;;;10.50;8.50;;;;;;;;5050374;28;10770;-94
2023/03/29 00:24:29;;;;;;;;;8.75;8.75;;;;;;;;5051146;28;10953;-94
2023/03/29 00:27:00;;;;;;;;;8.00;5.50;;;;;;;;5044749;28;10891;-95
2023/03/29 00:29:27;;;;;;;;;8.75;8.75;;;;;;;;5037704;28;10862;-95
2023/03/29 00:32:01;;;;;;;;;8.00;8.00;;;;;;;;5048187;28;10891;-93
2023/03/29 00:34:30;;;;;;;;;10.00;10.00;;;;;;;;5045478;28;10849;-93
2023/03/29 00:36:58;;;;;;;;;8.00;8.00;;;;;;;;5051994;28;11010;-94
2023/03/29 00:39:26;;;;;;;;;7.50;6.00;;;;;;;;5052675;28;10827;-93
2023/03/29 00:41:57;;;;;;;;;8.25;8.00;;;;;;;;5051729;28;10907;-95
2023/03/29 00:45:09;;;;;;;;;8.75;8.00;;;;;;;;5051117;28;11034;-95
2023/03/29 00:47:40;;;;;;;;;9.50;8.00;;;;;;;;5026669;28;11016;-94
2023/03/29 00:50:15;;;;;;;;;7.50;7.50;;;;;;;;5044393;28;10843;-94
2023/03/29 00:52:45;;;;;;;;;6.75;6.00;;;;;;;;5052203;28;10835;-94
2023/03/29 00:55:16;;;;;;;;;8.75;8.75;;;;;;;;5035231;28;10809;-93
2023/03/29 00:57:45;;;;;;;;;8.50;8.50;;;;;;;;5052129;28;10881;-93
2023/03/29 01:00:17;;;;;;;;;11.25;9.75;;;;;;;;5054539;28;10847;-95
2023/03/29 01:02:49;;;;;;;;;7.75;7.75;;;;;;;;5056169;28;10982;-94
2023/03/29 01:05:32;;;;;;;;;5.75;5.75;;;;;;;;5053484;28;10814;-95
2023/03/29 01:08:03;;;;;;;;;9.50;8.00;;;;;;;;5062238;28;10676;-95
2023/03/29 01:10:35;;;;;;;;;7.50;7.50;;;;;;;;5053167;28;10765;-95
2023/03/29 01:13:05;;;;;;;;;7.50;7.50;;;;;;;;5055636;28;10721;-95
2023/03/29 01:15:32;;;;;;;;;5.00;5.00;;;;;;;;5054993;28;10659;-94
2023/03/29 01:18:00;;;;;;;;;8.00;6.00;;;;;;;;5055710;28;10648;-94
2023/03/29 01:20:42;;;;;;;;;4.75;4.75;;;;;;;;5055807;28;10735;-94
2023/03/29 01:23:26;;;;;;;;;10.75;6.50;;;;;;;;5054781;28;10564;-94
2023/03/29 01:26:01;;;;;;;;;5.25;5.25;;;;;;;;5053873;28;10637;-94
2023/03/29 01:28:35;;;;;;;;;9.25;6.75;;;;;;;;5053877;28;10534;-93
2023/03/29 01:31:07;;;;;;;;;6.00;6.00;;;;;;;;5053803;28;10587;-94
2023/03/29 01:33:40;;;;;;;;;9.50;5.25;;;;;;;;5059103;28;10555;-93
2023/03/29 01:36:12;;;;;;;;;6.50;6.50;;;;;;;;5061789;28;10605;-93
2023/03/29 01:38:42;;;;;;;;;8.50;5.75;;;;;;;;5059819;28;10810;-94
2023/03/29 01:41:12;;;;;;;;;7.75;7.25;;;;;;;;5059321;28;10752;-92
2023/03/29 01:43:45;;;;;;;;;6.00;6.00;;;;;;;;5065900;28;10713;-92
2023/03/29 01:46:15;;;;;;;;;7.50;7.50;;;;;;;;5051977;28;10716;-93
2023/03/29 01:48:48;;;;;;;;;6.00;6.00;;;;;;;;5057054;28;10612;-92
2023/03/29 01:51:26;;;;;;;;;5.67;5.67;;;;;;;;5050282;28;10558;-92
2023/03/29 01:53:58;;;;;;;;;4.00;4.00;;;;;;;;5037288;28;10420;-93
2023/03/29 01:56:27;;;;;;;;;6.50;6.50;;;;;;;;5038947;28;10503;-92
2023/03/29 01:59:01;;;;;;;;;5.50;3.00;;;;;;;;5050091;28;10615;-95
2023/03/29 02:01:31;;;;;;;;;10.00;10.00;;;;;;;;5056550;28;10563;-95
2023/03/29 02:04:03;;;;;;;;;5.75;5.75;;;;;;;;5051351;28;10628;-94
2023/03/29 02:06:32;;;;;;;;;5.25;5.00;;;;;;;;5060409;28;10571;-95
2023/03/29 02:09:01;;;;;;;;;5.50;5.50;;;;;;;;5061480;28;10502;-95
2023/03/29 02:11:29;;;;;;;;;9.50;9.00;;;;;;;;5058899;28;10548;-95
2023/03/29 02:13:58;;;;;;;;;7.25;7.25;;;;;;;;5058036;28;10478;-95
2023/03/29 02:16:25;;;;;;;;;7.75;7.75;;;;;;;;5051080;28;10434;-95
2023/03/29 02:18:55;;;;;;;;;5.00;5.00;;;;;;;;5040248;28;10719;-95
2023/03/29 02:21:28;;;;;;;;;8.75;8.75;;;;;;;;5040289;28;11146;-95
2023/03/29 02:23:56;;;;;;;;;9.00;9.00;;;;;;;;5052192;28;10589;-95
2023/03/29 02:26:25;;;;;;;;;7.75;7.75;;;;;;;;5053669;28;10644;-94
2023/03/29 02:28:53;;;;;;;;;7.50;5.00;;;;;;;;5053927;28;10683;-94
2023/03/29 02:31:25;;;;;;;;;5.00;5.00;;;;;;;;5052666;28;10523;-95
2023/03/29 02:33:59;;;;;;;;;7.00;6.00;;;;;;;;5042125;28;11475;-95
2023/03/29 02:36:30;;;;;;;;;8.50;8.00;;;;;;;;5054093;28;10759;-94
2023/03/29 02:39:00;;;;;;;;;5.75;5.75;;;;;;;;5051934;28;10698;-96
2023/03/29 02:41:29;;;;;;;;;7.25;6.00;;;;;;;;5057201;28;10810;-94
2023/03/29 02:43:58;;;;;;;;;0.75;0.75;;;;;;;;5058281;28;10620;-95
2023/03/29 02:46:28;;;;;;;;;6.25;5.50;;;;;;;;5055359;28;10604;-95
2023/03/29 02:48:58;;;;;;;;;6.75;5.75;;;;;;;;5054249;28;10633;-94
2023/03/29 02:51:30;;;;;;;;;7.25;7.25;;;;;;;;5051125;28;10687;-95
2023/03/29 02:54:01;;;;;;;;;9.00;5.00;;;;;;;;5053713;28;10649;-93
2023/03/29 02:56:29;;;;;;;;;5.75;5.75;;;;;;;;5051994;28;10616;-94
2023/03/29 02:58:57;;;;;;;;;9.75;7.00;;;;;;;;5051770;28;10539;-94
2023/03/29 03:01:28;;;;;;;;;3.50;3.50;;;;;;;;5054515;28;10416;-94
2023/03/29 03:03:59;;;;;;;;;3.75;2.25;;;;;;;;5054346;28;10572;-94
2023/03/29 03:06:29;;;;;;;;;7.50;7.50;;;;;;;;5054824;28;10491;-94
2023/03/29 03:08:59;;;;;;;;;5.75;5.75;;;;;;;;5034057;28;10543;-94
2023/03/29 03:11:29;;;;;;;;;4.00;4.00;;;;;;;;5052355;28;10394;-94
2023/03/29 03:13:59;;;;;;;;;8.50;8.50;;;;;;;;5053451;28;10531;-94
2023/03/29 03:16:29;;;;;;;;;7.00;7.00;;;;;;;;5058628;28;10561;-94
2023/03/29 03:18:56;;;;;;;;;8.25;6.25;;;;;;;;5044901;28;10494;-94
2023/03/29 03:21:27;;;;;;;;;6.00;6.00;;;;;;;;5053309;28;10542;-94
2023/03/29 03:23:54;;;;;;;;;5.00;5.00;;;;;;;;5052186;28;10757;-94
2023/03/29 03:26:23;;;;;;;;;11.25;4.75;;;;;;;;5058432;28;10688;-94
2023/03/29 03:28:51;;;;;;;;;6.50;4.00;;;;;;;;5051297;28;10481;-95
2023/03/29 03:31:20;;;;;;;;;5.25;5.25;;;;;;;;5047682;28;10428;-95
2023/03/29 03:33:49;;;;;;;;;5.25;5.25;;;;;;;;5062203;28;10367;-95
2023/03/29 03:36:16;;;;;;;;;6.75;5.50;;;;;;;;5060729;28;10535;-95
2023/03/29 03:38:48;;;;;;;;;7.50;5.25;;;;;;;;5057051;28;10599;-95
2023/03/29 03:41:15;;;;;;;;;3.00;3.00;;;;;;;;5053183;28;10463;-93
2023/03/29 03:43:47;;;;;;;;;5.50;5.50;;;;;;;;5054700;28;10486;-92
2023/03/29 03:46:15;;;;;;;;;4.25;4.00;;;;;;;;5054962;28;10556;-92
2023/03/29 03:48:42;;;;;;;;;2.00;2.00;;;;;;;;5052202;28;10476;-91
2023/03/29 03:51:12;;;;;;;;;5.00;5.00;;;;;;;;5055520;28;10683;-91
2023/03/29 03:53:41;;;;;;;;;5.00;5.00;;;;;;;;5053467;28;10624;-91
2023/03/29 03:56:09;;;;;;;;;7.00;5.25;;;;;;;;5043648;28;10548;-91
2023/03/29 03:58:37;;;;;;;;;10.00;6.00;;;;;;;;5041288;28;10620;-92
2023/03/29 04:01:07;;;;;;;;;5.00;5.00;;;;;;;;5044553;28;10557;-92
2023/03/29 04:03:37;;;;;;;;;8.00;8.00;;;;;;;;5044093;28;10687;-92
2023/03/29 04:06:06;;;;;;;;;5.00;3.75;;;;;;;;5052833;28;10730;-94
2023/03/29 04:08:35;;;;;;;;;8.25;5.50;;;;;;;;5052248;28;10689;-93
2023/03/29 04:11:03;;;;;;;;;4.75;3.25;;;;;;;;5052628;28;10706;-93
2023/03/29 04:13:30;;;;;;;;;6.50;6.50;;;;;;;;5052962;28;10620;-91
2023/03/29 04:15:59;;;;;;;;;9.75;7.25;;;;;;;;5053387;28;10634;-94
2023/03/29 04:18:28;;;;;;;;;5.00;5.00;;;;;;;;5053033;28;10625;-93
2023/03/29 04:20:59;;;;;;;;;5.25;5.25;;;;;;;;5031125;28;10630;-94
2023/03/29 04:23:27;;;;;;;;;5.50;5.50;;;;;;;;5038974;28;10690;-95
2023/03/29 04:25:59;;;;;;;;;7.00;6.50;;;;;;;;5052011;28;10505;-94
2023/03/29 04:28:28;;;;;;;;;5.00;5.00;;;;;;;;5055148;28;10634;-93
2023/03/29 04:30:56;;;;;;;;;5.25;5.25;;;;;;;;5050778;28;10468;-91
2023/03/29 04:33:24;;;;;;;;;6.50;6.50;;;;;;;;5051630;28;10705;-92
2023/03/29 04:35:51;;;;;;;;;7.25;5.50;;;;;;;;5049011;28;10587;-79
2023/03/29 04:38:23;;;;;;;;;6.25;5.00;;;;;;;;5048961;28;10621;-76
2023/03/29 04:40:51;;;;;;;;;7.25;7.25;;;;;;;;5042832;28;10573;-77
2023/03/29 04:43:22;;;;;;;;;4.50;4.50;;;;;;;;5048439;28;10587;-76
2023/03/29 04:45:50;;;;;;;;;9.00;6.00;;;;;;;;5048298;28;10555;-76
2023/03/29 04:48:17;;;;;;;;;6.00;6.00;;;;;;;;5048195;28;10482;-75
2023/03/29 04:50:47;;;;;;;;;5.00;5.00;;;;;;;;5042841;28;10522;-76
2023/03/29 04:53:14;;;;;;;;;5.50;5.50;;;;;;;;5047948;28;10636;-74
2023/03/29 04:55:42;;;;;;;;;7.50;5.75;;;;;;;;5047288;28;10515;-74
2023/03/29 04:58:09;;;;;;;;;10.00;6.00;;;;;;;;5047778;28;10543;-76
2023/03/29 05:00:38;;;;;;;;;2.00;2.00;;;;;;;;5046800;28;10474;-73
2023/03/29 05:03:06;;;;;;;;;7.25;7.25;;;;;;;;5046851;28;10539;-77
2023/03/29 05:05:33;;;;;;;;;9.50;9.50;;;;;;;;5047387;28;10841;-75
2023/03/29 05:08:01;;;;;;;;;7.25;7.25;;;;;;;;5046795;28;10772;-78
2023/03/29 05:10:28;;;;;;;;;11.50;11.50;;;;;;;;5047003;28;10824;-74
2023/03/29 05:12:55;;;;;;;;;12.75;12.75;;;;;;;;5046557;28;10757;-73
2023/03/29 05:15:25;;;;;;;;;13.25;10.25;;;;;;;;5045930;28;10813;-73
2023/03/29 05:17:54;;;;;;;;;9.00;9.00;;;;;;;;5046957;28;10818;-74
2023/03/29 05:20:23;;;;;;;;;11.25;10.75;;;;;;;;5046796;28;10678;-76
2023/03/29 05:22:51;;;;;;;;;9.75;9.75;;;;;;;;5047635;28;10774;-77
2023/03/29 05:25:19;;;;;;;;;10.75;10.75;;;;;;;;5047633;28;10726;-74
2023/03/29 05:27:48;;;;;;;;;9.75;9.75;;;;;;;;5043059;28;10654;-77
2023/03/29 05:30:19;;;;;;;;;11.25;9.75;;;;;;;;5044539;28;10692;-78
2023/03/29 05:32:46;;;;;;;;;12.00;12.00;;;;;;;;5035558;28;10719;-74
2023/03/29 05:35:15;;;;;;;;;13.00;13.00;;;;;;;;5048958;28;10972;-79
2023/03/29 05:37:46;;;;;;;;;10.25;10.25;;;;;;;;5047200;28;11105;-75
2023/03/29 05:40:13;;;;;;;;;10.25;8.75;;;;;;;;5039454;28;10968;-78
2023/03/29 05:42:40;;;;;;;;;10.25;9.75;;;;;;;;5046623;28;10899;-79
2023/03/29 05:45:09;;;;;;;;;13.50;13.00;;;;;;;;5035095;28;10756;-78
2023/03/29 05:47:36;;;;;;;;;12.00;11.00;;;;;;;;5040960;28;12342;-77
2023/03/29 05:50:07;;;;;;;;;13.50;11.75;;;;;;;;5046264;28;11835;-76
2023/03/29 05:52:37;;;;;;;;;13.00;12.50;;;;;;;;5047438;28;11193;-76
2023/03/29 05:55:05;;;;;;;;;14.50;13.25;;;;;;;;5046158;28;11159;-74
2023/03/29 05:57:35;;;;;;;;;15.00;15.00;;;;;;;;5048859;28;11118;-74
2023/03/29 06:00:15;;;;;;;;;17.75;17.75;;;;;;;;5049899;28;11181;-78
2023/03/29 06:02:42;;;;;;;;;11.00;11.00;;;;;;;;5050446;28;11240;-74
2023/03/29 06:05:10;;;;;;;;;15.00;15.00;;;;;;;;5050251;28;11188;-78
2023/03/29 06:07:39;;;;;;;;;10.75;10.75;;;;;;;;5049316;28;11111;-78
2023/03/29 06:10:08;;;;;;;;;11.25;10.75;;;;;;;;5049811;28;11023;-72
2023/03/29 06:12:36;;;;;;;;;9.00;9.00;;;;;;;;5045491;28;11042;-71
2023/03/29 06:15:04;;;;;;;;;8.25;8.25;;;;;;;;5049326;28;10890;-75
2023/03/29 06:17:32;;;;;;;;;10.00;10.00;;;;;;;;5050185;28;10763;-73
2023/03/29 06:20:03;;;;;;;;;8.25;8.25;;;;;;;;5049207;28;10752;-74
2023/03/29 06:22:31;;;;;;;;;7.00;7.00;;;;;;;;5035455;28;10705;-75
2023/03/29 06:24:59;;;;;;;;;10.25;8.00;;;;;;;;5043120;28;10924;-73
2023/03/29 06:27:27;;;;;;;;;6.00;6.00;;;;;;;;5037125;28;11499;-73
2023/03/29 06:29:56;;;;;;;;;8.50;6.50;;;;;;;;5047516;28;11417;-75
2023/03/29 06:32:23;;;;;;;;;7.00;7.00;;;;;;;;5049340;28;10671;-75
2023/03/29 06:34:51;;;;;;;;;7.50;7.50;;;;;;;;5049134;28;11291;-74
2023/03/29 06:37:21;;;;;;;;;9.50;7.25;;;;;;;;5049942;28;11182;-74
2023/03/29 06:39:51;;;;;;;;;11.25;10.25;;;;;;;;5049236;28;10531;-74
2023/03/29 06:42:20;;;;;;;;;10.50;9.25;;;;;;;;5049964;28;10552;-74
2023/03/29 06:44:48;;;;;;;;;13.00;9.50;;;;;;;;5048869;28;10581;-75
2023/03/29 06:47:16;;;;;;;;;15.75;11.25;;;;;;;;5050004;28;10520;-75
2023/03/29 06:49:43;;;;;;;;;8.25;5.75;;;;;;;;5049888;28;10480;-75
2023/03/29 06:52:11;;;;;;;;;9.00;9.00;;;;;;;;5048708;28;10538;-75
2023/03/29 06:54:38;;;;;;;;;9.25;9.25;;;;;;;;5049195;28;10566;-77
2023/03/29 06:57:06;;;;;;;;;10.00;9.25;;;;;;;;5049052;28;10295;-76
2023/03/29 06:59:35;;;;;;;;;11.00;11.00;;;;;;;;5049773;28;10458;-74
2023/03/29 07:02:02;;;;;;;;;8.50;8.50;;;;;;;;5047651;28;10217;-74
2023/03/29 07:04:31;;;;;;;;;9.00;9.00;;;;;;;;5049057;28;10178;-76
2023/03/29 07:07:02;;;;;;;;;9.50;9.00;;;;;;;;5048094;28;10230;-72
2023/03/29 07:09:32;;;;;;;;;9.75;9.75;;;;;;;;5049243;28;10176;-72
2023/03/29 07:12:00;;;;;;;;;10.50;9.25;;;;;;;;5048832;28;10326;-73
2023/03/29 07:14:28;;;;;;;;;10.50;9.50;;;;;;;;5049112;28;10170;-72
2023/03/29 07:16:58;;;;;;;;;12.50;11.00;;;;;;;;5047321;28;10296;-75
2023/03/29 07:19:27;;;;;;;;;7.00;7.00;;;;;;;;5035585;28;10217;-75
2023/03/29 07:21:55;;;;;;;;;10.50;10.50;;;;;;;;5048783;28;10031;-74
2023/03/29 07:24:23;;;;;;;;;9.50;9.50;;;;;;;;5052831;28;10099;-74
2023/03/29 07:26:51;;;;;;;;;11.50;11.50;;;;;;;;5045090;28;10301;-74
2023/03/29 07:29:18;;;;;;;;;9.25;9.25;;;;;;;;5041068;28;10174;-75
2023/03/29 07:31:46;;;;;;;;;11.00;11.00;;;;;;;;5043342;28;10125;-73
2023/03/29 07:34:16;;;;;;;;;11.00;10.50;;;;;;;;5046445;28;10187;-75
2023/03/29 07:36:44;;;;;;;;;9.25;9.25;;;;;;;;5048993;28;10074;-75
2023/03/29 07:39:13;;;;;;;;;11.00;11.00;;;;;;;;5044929;28;10286;-74
2023/03/29 07:41:41;;;;;;;;;9.75;9.75;;;;;;;;5043409;28;10092;-74
2023/03/29 07:44:08;;;;;;;;;11.00;11.00;;;;;;;;5047951;28;10111;-72
2023/03/29 07:46:36;;;;;;;;;10.00;10.00;;;;;;;;5048430;28;10113;-73
2023/03/29 07:49:03;;;;;;;;;5.50;5.50;;;;;;;;5046054;28;10070;-75
2023/03/29 07:51:32;;;;;;;;;9.75;9.75;;;;;;;;5043659;28;10017;-72
2023/03/29 07:53:59;;;;;;;;;10.75;9.75;;;;;;;;5048134;28;10772;-73
2023/03/29 07:56:26;;;;;;;;;11.75;11.75;;;;;;;;5048038;28;9950;-74
2023/03/29 07:58:53;;;;;;;;;11.75;11.00;;;;;;;;5047970;28;9913;-72
2023/03/29 08:01:21;;;;;;;;;7.50;7.50;;;;;;;;5047578;28;9980;-74
2023/03/29 08:03:48;;;;;;;;;18.00;13.00;;;;;;;;5048108;28;9929;-72
2023/03/29 08:06:17;;;;;;;;;10.00;10.00;;;;;;;;5047911;28;9968;-73
2023/03/29 08:08:45;;;;;;;;;12.00;10.00;;;;;;;;5048169;28;9849;-72
2023/03/29 08:11:14;;;;;;;;;12.25;12.25;;;;;;;;5047643;28;10054;-74
2023/03/29 08:13:41;;;;;;;;;12.75;11.75;;;;;;;;5047945;28;10153;-72
2023/03/29 08:16:10;;;;;;;;;12.00;11.00;;;;;;;;5047615;28;9796;-75
2023/03/29 08:18:37;;;;;;;;;12.00;12.00;;;;;;;;5047359;28;9897;-75
2023/03/29 08:21:05;;;;;;;;;11.50;11.00;;;;;;;;5033818;28;9979;-75
2023/03/29 08:23:32;;;;;;;;;11.00;11.00;;;;;;;;5047701;28;9700;-75
2023/03/29 08:26:01;;;;;;;;;12.50;12.50;;;;;;;;5046997;28;9775;-75
2023/03/29 08:28:28;;;;;;;;;15.50;12.25;;;;;;;;5040845;28;9483;-75
2023/03/29 08:30:56;;;;;;;;;14.00;11.33;;;;;;;;5046556;28;9645;-74
2023/03/29 08:33:23;;;;;;;;;8.25;8.25;;;;;;;;5047096;28;9410;-75
2023/03/29 08:35:51;;;;;;;;;10.75;10.75;;;;;;;;5047021;28;10512;-74
2023/03/29 08:38:18;;;;;;;;;12.75;12.75;;;;;;;;5047274;28;9468;-75
2023/03/29 08:40:48;;;;;;;;;11.33;9.67;;;;;;;;5047213;28;10246;-72
2023/03/29 08:43:40;;;;;;;;;11.33;10.00;;;;;;;;5047445;28;9398;-76
2023/03/29 08:46:17;;;;;;;;;8.00;8.00;;;;;;;;5046544;28;9345;-75
2023/03/29 08:48:47;;;;;;;;;11.00;11.00;;;;;;;;5046702;28;10220;-72
2023/03/29 08:51:20;;;;;;;;;12.00;11.33;;;;;;;;5046966;28;9457;-75
2023/03/29 08:53:51;;;;;;;;;12.33;12.33;;;;;;;;5046932;28;9426;-76
2023/03/29 08:56:23;;;;;;;;;11.00;11.00;;;;;;;;5045023;28;10116;-76
2023/03/29 08:58:53;;;;;;;;;12.00;12.00;;;;;;;;5046966;28;9246;-73
2023/03/29 09:01:22;;;;;;;;;11.00;11.00;;;;;;;;5046302;28;9214;-74
2023/03/29 09:03:58;;;;;;;;;15.00;12.67;;;;;;;;5046579;28;9189;-74
2023/03/29 09:06:25;;;;;;;;;13.67;12.33;;;;;;;;5046836;28;9009;-73
2023/03/29 09:08:53;;;;;;;;;13.00;11.33;;;;;;;;5046775;28;9026;-72
2023/03/29 09:11:37;;;;;;;;;11.33;11.33;;;;;;;;5047485;28;8936;-74
2023/03/29 09:14:24;;;;;;;;;11.75;11.75;;;;;;;;5047683;28;9031;-75
2023/03/29 09:16:57;;;;;;;;;14.75;11.50;;;;;;;;5047595;28;8961;-74
2023/03/29 09:19:29;;;;;;;;;11.67;11.67;;;;;;;;5037551;28;8916;-76
2023/03/29 09:22:03;;;;;;;;;10.00;10.00;;;;;;;;5046708;28;8929;-76
2023/03/29 09:24:41;;;;;;;;;10.00;10.00;;;;;;;;5046841;28;8868;-75
2023/03/29 09:27:11;;;;;;;;;10.50;8.00;;;;;;;;5046569;28;9689;-75
2023/03/29 09:29:53;;;;;;;;;10.25;9.75;;;;;;;;5045925;28;8863;-76
2023/03/29 09:32:23;;;;;;;;;8.50;8.50;;;;;;;;5050771;28;8817;-75
2023/03/29 09:34:54;;;;;;;;;8.75;8.00;;;;;;;;5053577;28;8857;-74
2023/03/29 09:37:25;;;;;;;;;13.00;10.25;;;;;;;;5048618;28;8894;-75
2023/03/29 09:39:54;;;;;;;;;10.25;10.25;;;;;;;;5050831;28;8860;-73
2023/03/29 09:42:22;;;;;;;;;8.00;8.00;;;;;;;;5050399;28;8869;-75
2023/03/29 09:44:54;;;;;;;;;8.00;8.00;;;;;;;;5050165;28;8866;-72
2023/03/29 09:47:24;;;;;;;;;8.75;8.75;;;;;;;;5049664;28;9625;-75
2023/03/29 09:49:55;;;;;;;;;10.00;9.50;;;;;;;;5042517;28;8945;-75
2023/03/29 09:52:23;;;;;;;;;12.25;9.75;;;;;;;;5050001;28;8838;-72
2023/03/29 09:54:50;;;;;;;;;12.00;9.25;;;;;;;;5049752;28;8842;-72
2023/03/29 09:57:19;;;;;;;;;9.25;9.25;;;;;;;;5049885;28;8890;-75
2023/03/29 09:59:47;;;;;;;;;8.75;8.75;;;;;;;;5049994;28;8855;-71
2023/03/29 10:02:16;;;;;;;;;8.50;8.50;;;;;;;;5046577;28;8849;-73
2023/03/29 10:04:43;;;;;;;;;9.25;9.00;;;;;;;;5050082;28;8855;-73
2023/03/29 10:07:19;;;;;;;;;9.00;9.00;;;;;;;;5050386;28;8851;-73
2023/03/29 10:09:47;;;;;;;;;7.50;7.50;;;;;;;;5050940;28;8904;-73
2023/03/29 10:12:14;;;;;;;;;7.50;7.50;;;;;;;;5050058;28;8913;-74
2023/03/29 10:14:45;;;;;;;;;11.25;11.25;;;;;;;;5050702;28;8839;-76
2023/03/29 10:17:18;;;;;;;;;10.00;8.00;;;;;;;;5046274;28;8951;-76
2023/03/29 10:19:51;;;;;;;;;9.25;7.75;;;;;;;;5050332;28;8843;-77
2023/03/29 10:22:21;;;;;;;;;11.75;11.00;;;;;;;;5051143;28;9010;-76
2023/03/29 10:24:54;;;;;;;;;6.75;6.75;;;;;;;;5050826;28;8961;-76
2023/03/29 10:27:24;;;;;;;;;0.00;0.00;;;;;;;;5050673;28;8858;-77
2023/03/29 10:29:52;;;;;;;;;14.25;11.25;;;;;;;;5048679;28;8849;-74
2023/03/29 10:32:28;;;;;;;;;11.00;9.00;;;;;;;;5049842;28;8849;-76
2023/03/29 10:34:59;;;;;;;;;10.75;9.75;;;;;;;;5049895;28;8971;-76
2023/03/29 10:37:29;;;;;;;;;10.75;8.00;;;;;;;;5049703;28;8865;-76
2023/03/29 10:39:58;;;;;;;;;11.25;11.25;;;;;;;;5049539;28;8973;-77
2023/03/29 10:42:27;;;;;;;;;13.75;11.50;;;;;;;;5049259;28;8854;-77
2023/03/29 10:44:58;;;;;;;;;11.75;8.75;;;;;;;;5050226;28;8843;-77
2023/03/29 10:47:33;;;;;;;;;11.25;11.25;;;;;;;;5044310;28;8994;-78
2023/03/29 10:50:00;;;;;;;;;11.00;10.00;;;;;;;;5049478;28;8865;-77
2023/03/29 10:52:30;;;;;;;;;10.25;10.00;;;;;;;;5048990;28;8846;-77
2023/03/29 10:54:58;;;;;;;;;11.50;11.50;;;;;;;;5049817;28;8850;-77
2023/03/29 10:57:33;;;;;;;;;13.25;12.00;;;;;;;;5048911;28;8867;-74
2023/03/29 11:00:06;;;;;;;;;13.00;8.50;;;;;;;;5049558;28;8854;-77
2023/03/29 11:03:25;;;;;;;;;10.50;9.50;;;;;;;;5050006;28;8815;-81
2023/03/29 11:05:58;;;;;;;;;6.00;6.00;;;;;;;;4991693;28;8837;-78
2023/03/29 11:08:38;;;;;;;;;6.00;6.00;;;;;;;;4989784;28;8877;-74
2023/03/29 11:11:16;;;;;;;;;10.25;5.75;;;;;;;;5031469;28;8874;-75
2023/03/29 11:13:50;;;;;;;;;9.50;9.50;;;;;;;;5050107;28;8886;-83
2023/03/29 11:16:25;;;;;;;;;6.00;6.00;;;;;;;;5050428;28;8842;-82
2023/03/29 11:19:06;;;;;;;;;8.75;8.00;;;;;;;;5049233;28;8849;-81
2023/03/29 11:21:41;;;;;;;;;7.50;7.50;;;;;;;;5039451;28;8853;-78
2023/03/29 11:24:25;;;;;;;;;9.00;5.75;;;;;;;;5040171;28;8863;-78
2023/03/29 11:27:00;;;;;;;;;8.00;6.50;;;;;;;;5038743;28;8866;-76
2023/03/29 11:29:30;;;;;;;;;4.25;4.25;;;;;;;;5048150;28;8970;-75
2023/03/29 11:32:03;;;;;;;;;8.25;6.00;;;;;;;;5038365;28;8791;-79
2023/03/29 11:34:36;;;;;;;;;6.50;6.50;;;;;;;;5050578;28;9442;-83
2023/03/29 11:37:13;;;;;;;;;7.00;7.00;;;;;;;;5052319;28;8932;-79
2023/03/29 11:39:48;;;;;;;;;5.25;5.25;;;;;;;;5048701;28;8850;-77
2023/03/29 11:42:18;;;;;;;;;6.00;4.25;;;;;;;;5049716;28;8880;-79
2023/03/29 11:44:48;;;;;;;;;5.00;3.75;;;;;;;;5049117;28;8861;-79
2023/03/29 11:47:21;;;;;;;;;9.00;5.00;;;;;;;;5048769;28;8835;-76
2023/03/29 11:49:56;;;;;;;;;4.75;4.75;;;;;;;;5043047;28;8888;-77
2023/03/29 11:52:28;;;;;;;;;5.50;5.50;;;;;;;;5043525;28;9628;-74
2023/03/29 11:55:02;;;;;;;;;4.50;4.00;;;;;;;;5048940;28;8936;-74
2023/03/29 11:57:31;;;;;;;;;9.50;7.00;;;;;;;;5048477;28;8981;-78
2023/03/29 12:00:04;;;;;;;;;5.75;5.75;;;;;;;;5048894;28;8896;-74
2023/03/29 12:02:35;;;;;;;;;7.00;6.00;;;;;;;;5047965;28;8888;-77
2023/03/29 12:05:10;;;;;;;;;6.00;6.00;;;;;;;;5048947;28;8854;-75
2023/03/29 12:07:43;;;;;;;;;5.25;5.25;;;;;;;;5048225;28;8851;-77
2023/03/29 12:10:18;;;;;;;;;6.00;5.25;;;;;;;;5048064;28;8835;-78
2023/03/29 12:12:48;;;;;;;;;8.50;6.00;;;;;;;;5048062;28;9494;-77
2023/03/29 12:15:19;;;;;;;;;5.25;4.00;;;;;;;;5047646;28;8862;-76
2023/03/29 12:18:01;;;;;;;;;4.75;4.75;;;;;;;;5048438;28;8869;-78
2023/03/29 12:20:31;;;;;;;;;6.75;4.00;;;;;;;;5047897;28;8908;-78
2023/03/29 12:23:00;;;;;;;;;5.25;4.75;;;;;;;;5048404;28;8961;-76
2023/03/29 12:25:31;;;;;;;;;5.50;4.50;;;;;;;;5048256;28;8912;-76
2023/03/29 12:28:09;;;;;;;;;3.25;3.00;;;;;;;;5045741;28;8854;-78
2023/03/29 12:30:57;;;;;;;;;5.40;4.00;;;;;;;;5047298;28;8787;-76
2023/03/29 12:33:47;;;;;;;;;5.60;4.00;;;;;;;;5046425;28;8846;-73
2023/03/29 12:36:29;;;;;;;;;7.00;5.00;;;;;;;;5047235;28;8931;-76
2023/03/29 12:38:58;;;;;;;;;7.60;4.60;;;;;;;;5047925;28;8831;-74
2023/03/29 12:41:26;;;;;;;;;3.60;3.60;;;;;;;;5047331;28;8990;-77
2023/03/29 12:43:54;;;;;;;;;4.40;3.80;;;;;;;;5048448;28;8858;-78
2023/03/29 12:46:27;;;;;;;;;5.20;4.00;;;;;;;;5047438;28;8874;-78
2023/03/29 12:48:57;;;;;;;;;1.20;1.20;;;;;;;;5047786;28;8847;-73
2023/03/29 12:51:31;;;;;;;;;4.20;4.20;;;;;;;;5047963;28;8866;-73
2023/03/29 12:54:07;;;;;;;;;3.40;3.00;;;;;;;;5048826;28;8854;-75
2023/03/29 12:56:41;;;;;;;;;6.20;4.60;;;;;;;;5051273;28;8969;-78
2023/03/29 12:59:25;;;;;;;;;6.00;4.00;;;;;;;;5046243;28;8858;-79
2023/03/29 13:01:59;;;;;;;;;6.00;5.40;;;;;;;;5042263;28;8818;-80
2023/03/29 13:04:37;;;;;;;;;4.60;4.00;;;;;;;;5047467;28;8846;-76
2023/03/29 13:07:05;;;;;;;;;4.80;4.80;;;;;;;;5050339;28;8842;-75
2023/03/29 13:09:46;;;;;;;;;4.80;3.20;;;;;;;;5041452;28;8908;-75
2023/03/29 13:12:22;;;;;;;;;4.00;3.00;;;;;;;;5048814;28;8835;-77
2023/03/29 13:14:52;;;;;;;;;0.20;0.00;;;;;;;;5051211;28;8870;-76
2023/03/29 13:17:26;;;;;;;;;4.20;4.20;;;;;;;;5050224;28;8976;-75
2023/03/29 13:20:16;;;;;;;;;3.80;3.80;;;;;;;;5050778;28;8870;-72
2023/03/29 13:22:59;;;;;;;;;3.20;3.20;;;;;;;;5051378;28;8865;-80
2023/03/29 13:25:42;;;;;;;;;4.00;2.00;;;;;;;;5050828;28;8936;-73
2023/03/29 13:28:18;;;;;;;;;2.20;2.20;;;;;;;;5049131;28;8844;-76
2023/03/29 13:30:51;;;;;;;;;3.00;2.00;;;;;;;;5050667;28;8797;-72
2023/03/29 13:33:36;;;;;;;;;1.40;1.20;;;;;;;;5050178;28;8838;-76
2023/03/29 13:36:07;;;;;;;;;4.60;3.00;;;;;;;;5050064;28;8858;-73
2023/03/29 13:38:45;;;;;;;;;6.00;3.00;;;;;;;;5050709;28;8855;-71
2023/03/29 13:41:27;;;;;;;;;4.80;2.00;;;;;;;;5050059;28;8864;-72
2023/03/29 13:43:56;;;;;;;;;3.60;2.00;;;;;;;;5050478;28;9722;-72
2023/03/29 13:46:37;;;;;;;;;2.00;2.00;;;;;;;;5050092;28;9629;-72
2023/03/29 13:49:16;;;;;;;;;3.00;2.00;;;;;;;;5050417;28;8947;-74
2023/03/29 13:51:58;;;;;;;;;5.20;2.20;;;;;;;;5050652;28;8889;-78
2023/03/29 13:54:32;;;;;;;;;2.00;2.00;;;;;;;;5047419;28;9235;-77
2023/03/29 13:57:09;;;;;;;;;1.00;1.00;;;;;;;;5043803;28;9631;-77
2023/03/29 13:59:42;;;;;;;;;3.00;3.00;;;;;;;;5050022;28;8842;-72
2023/03/29 14:02:18;;;;;;;;;0.80;0.80;;;;;;;;5048762;28;8868;-78
2023/03/29 14:04:47;;;;;;;;;3.60;1.80;;;;;;;;5050591;28;8870;-72
2023/03/29 14:07:15;;;;;;;;;3.00;0.80;;;;;;;;5049368;28;8848;-72
2023/03/29 14:09:45;;;;;;;;;1.20;1.20;;;;;;;;5050578;28;9625;-76
2023/03/29 14:12:15;;;;;;;;;1.00;1.00;;;;;;;;5049489;28;8848;-77
2023/03/29 14:14:45;;;;;;;;;2.00;2.00;;;;;;;;5040670;28;9668;-80
2023/03/29 14:17:16;;;;;;;;;1.00;1.00;;;;;;;;5048575;28;8859;-80
2023/03/29 14:19:44;;;;;;;;;2.00;1.60;;;;;;;;5050436;28;8851;-75
2023/03/29 14:22:15;;;;;;;;;3.00;3.00;;;;;;;;5049303;28;8993;-76
2023/03/29 14:24:48;;;;;;;;;3.40;3.40;;;;;;;;5040860;28;8841;-76
2023/03/29 14:27:17;;;;;;;;;2.60;2.60;;;;;;;;5046437;28;8924;-76
2023/03/29 14:29:46;;;;;;;;;3.00;1.60;;;;;;;;5047974;28;8869;-73
2023/03/29 14:32:16;;;;;;;;;1.00;1.00;;;;;;;;5049253;28;8863;-76
2023/03/29 14:34:44;;;;;;;;;2.80;2.80;;;;;;;;5049507;28;8862;-75
2023/03/29 14:37:12;;;;;;;;;1.40;1.40;;;;;;;;5049645;28;8882;-76
2023/03/29 14:39:41;;;;;;;;;1.00;1.00;;;;;;;;5049640;28;8859;-76
2023/03/29 14:42:19;;;;;;;;;2.00;2.00;;;;;;;;5050095;28;8866;-76
2023/03/29 14:44:47;;;;;;;;;1.00;1.00;;;;;;;;5050181;28;8890;-75
2023/03/29 14:47:20;;;;;;;;;2.80;1.00;;;;;;;;5051398;28;8992;-75
2023/03/29 14:49:50;;;;;;;;;1.80;1.80;;;;;;;;5042212;28;8869;-75
2023/03/29 14:52:20;;;;;;;;;1.60;1.60;;;;;;;;5045204;28;8858;-76
2023/03/29 14:54:52;;;;;;;;;1.60;1.60;;;;;;;;5038969;28;8859;-74
2023/03/29 14:57:28;;;;;;;;;1.40;1.40;;;;;;;;5047341;28;8854;-76
2023/03/29 15:00:06;;;;;;;;;2.00;2.00;;;;;;;;5035888;28;8975;-76
2023/03/29 15:02:49;;;;;;;;;2.00;2.00;;;;;;;;5046128;28;8820;-76
2023/03/29 15:05:25;;;;;;;;;2.40;2.40;;;;;;;;5047323;28;8858;-73
2023/03/29 15:07:54;;;;;;;;;3.80;1.80;;;;;;;;5049555;28;8854;-74